Time;durP1;ratioP1;P1;durP2;ratioP2;P2;SDS_P1;SDS_P2;PMS_P1;PMS_P2;Temp;Humidity;BMP_temperature;BMP_pressure;BME280_temperature;BME280_humidity;BME280_pressure;Samples;Min_cycle;Max_cycle;Signal;HPM_P1;HPM_P2
2022/09/18 00:01:30;;;;;;;4.53;1.15;;;;;;;;;;4989597;28;20029;-84
2022/09/18 00:03:57;;;;;;;1.65;0.77;;;;;;;;;;5007759;28;20027;-83
2022/09/18 00:06:24;;;;;;;3.95;0.65;;;;;;;;;;5020856;28;20464;-83
2022/09/18 00:08:52;;;;;;;2.05;0.63;;;;;;;;;;4991979;28;20407;-83
2022/09/18 00:11:19;;;;;;;3.22;0.73;;;;;;;;;;5003102;28;20038;-84
2022/09/18 00:13:44;;;;;;;2.53;0.63;;;;;;;;;;4990896;28;20058;-84
2022/09/18 00:16:11;;;;;;;2.25;0.70;;;;;;;;;;4989778;28;20021;-84
2022/09/18 00:18:37;;;;;;;1.38;0.60;;;;;;;;;;4994100;28;20044;-83
2022/09/18 00:21:10;;;;;;;1.92;0.85;;;;;;;;;;5004947;28;20037;-86
2022/09/18 00:23:36;;;;;;;1.92;0.70;;;;;;;;;;5007061;28;20033;-83
2022/09/18 00:26:02;;;;;;;4.22;0.43;;;;;;;;;;5003454;28;20056;-84
2022/09/18 00:28:28;;;;;;;1.98;0.73;;;;;;;;;;4989786;28;20032;-84
2022/09/18 00:31:05;;;;;;;2.05;0.50;;;;;;;;;;5008946;28;20112;-84
2022/09/18 00:33:33;;;;;;;3.25;0.70;;;;;;;;;;5006336;28;20033;-84
2022/09/18 00:36:01;;;;;;;2.13;0.47;;;;;;;;;;4990793;28;20025;-84
2022/09/18 00:38:28;;;;;;;2.08;0.50;;;;;;;;;;4986883;28;20034;-83
2022/09/18 00:40:54;;;;;;;2.72;0.60;;;;;;;;;;5005481;28;20037;-83
2022/09/18 00:43:21;;;;;;;4.35;0.70;;;;;;;;;;5023926;28;20091;-84
2022/09/18 00:45:54;;;;;;;2.60;0.70;;;;;;;;;;5004106;28;20481;-84
2022/09/18 00:48:21;;;;;;;2.28;0.40;;;;;;;;;;5003724;28;20033;-84
2022/09/18 00:50:46;;;;;;;2.72;0.82;;;;;;;;;;5007585;28;20040;-85
2022/09/18 00:53:11;;;;;;;2.28;0.60;;;;;;;;;;5005268;28;20037;-84
2022/09/18 00:55:37;;;;;;;1.92;0.75;;;;;;;;;;4999785;28;20053;-85
2022/09/18 00:58:03;;;;;;;2.45;0.70;;;;;;;;;;5000533;28;20041;-84
2022/09/18 01:00:30;;;;;;;2.08;0.60;;;;;;;;;;4989284;28;20033;-84
2022/09/18 01:02:56;;;;;;;2.30;0.52;;;;;;;;;;5006883;28;20036;-84
2022/09/18 01:06:18;;;;;;;2.50;0.40;;;;;;;;;;4987591;28;20523;-86
2022/09/18 01:09:05;;;;;;;2.45;0.60;;;;;;;;;;4939787;28;20039;-83
2022/09/18 01:11:40;;;;;;;1.85;0.30;;;;;;;;;;5014209;28;20049;-84
2022/09/18 01:14:32;;;;;;;1.52;0.40;;;;;;;;;;5007514;28;20047;-84
2022/09/18 01:17:17;;;;;;;2.15;0.47;;;;;;;;;;5006279;28;20041;-84
2022/09/18 01:20:04;;;;;;;1.95;0.40;;;;;;;;;;5008997;28;20519;-84
2022/09/18 01:23:07;;;;;;;1.98;0.28;;;;;;;;;;5038857;28;20033;-84
2022/09/18 01:25:35;;;;;;;2.33;0.60;;;;;;;;;;5012683;28;20079;-83
2022/09/18 01:28:38;;;;;;;2.25;0.70;;;;;;;;;;5026187;28;20036;-83
2022/09/18 01:31:09;;;;;;;2.75;0.43;;;;;;;;;;4935317;28;20482;-84
2022/09/18 01:34:08;;;;;;;2.30;0.40;;;;;;;;;;4977833;28;20160;-85
2022/09/18 01:36:35;;;;;;;1.52;0.30;;;;;;;;;;4954688;28;20051;-84
2022/09/18 01:39:11;;;;;;;2.60;0.45;;;;;;;;;;5006504;28;20037;-85
2022/09/18 01:41:37;;;;;;;2.40;0.50;;;;;;;;;;5004299;28;20087;-84
2022/09/18 01:44:06;;;;;;;2.10;0.38;;;;;;;;;;4990508;28;20041;-84
2022/09/18 01:46:32;;;;;;;1.20;0.60;;;;;;;;;;5030290;28;20029;-84
2022/09/18 01:49:04;;;;;;;1.10;0.30;;;;;;;;;;4993593;28;20107;-83
2022/09/18 01:51:45;;;;;;;1.35;0.52;;;;;;;;;;5008099;28;20064;-84
2022/09/18 01:54:14;;;;;;;2.15;0.93;;;;;;;;;;4991941;28;20029;-83
2022/09/18 01:57:19;;;;;;;4.10;0.50;;;;;;;;;;5008092;28;20036;-85
2022/09/18 02:00:11;;;;;;;1.88;0.60;;;;;;;;;;4977427;28;20079;-84
2022/09/18 02:02:42;;;;;;;2.05;0.47;;;;;;;;;;5013400;23;20146;-85
2022/09/18 02:05:10;;;;;;;3.10;0.40;;;;;;;;;;4983355;28;20035;-84
2022/09/18 02:08:05;;;;;;;1.30;0.45;;;;;;;;;;4970243;28;20486;-85
2022/09/18 02:10:31;;;;;;;1.30;0.20;;;;;;;;;;4969790;28;20039;-85
2022/09/18 02:12:57;;;;;;;7.53;3.13;;;;;;;;;;4986451;28;20449;-84
2022/09/18 02:15:24;;;;;;;7.88;3.28;;;;;;;;;;4954637;29;20067;-84
2022/09/18 02:17:56;;;;;;;11.45;6.90;;;;;;;;;;4970559;28;20118;-85
2022/09/18 02:20:27;;;;;;;8.50;5.25;;;;;;;;;;4970500;28;20541;-85
2022/09/18 02:22:56;;;;;;;9.07;5.30;;;;;;;;;;4978724;28;20513;-85
2022/09/18 02:25:26;;;;;;;10.68;4.55;;;;;;;;;;4986298;28;20027;-84
2022/09/18 02:27:52;;;;;;;9.15;4.68;;;;;;;;;;4986386;28;20031;-85
2022/09/18 02:30:19;;;;;;;9.02;4.80;;;;;;;;;;4977503;28;20058;-85
2022/09/18 02:32:45;;;;;;;8.10;4.22;;;;;;;;;;5009016;28;20050;-85
2022/09/18 02:35:11;;;;;;;7.68;4.32;;;;;;;;;;4976770;28;20022;-85
2022/09/18 02:37:57;;;;;;;8.27;4.00;;;;;;;;;;4983288;28;20038;-84
2022/09/18 02:40:41;;;;;;;7.40;3.40;;;;;;;;;;4972323;28;20031;-84
2022/09/18 02:43:53;;;;;;;6.82;3.70;;;;;;;;;;4989652;28;20379;-85
2022/09/18 02:46:30;;;;;;;5.72;3.25;;;;;;;;;;4940361;28;20101;-84
2022/09/18 02:49:38;;;;;;;7.13;3.58;;;;;;;;;;4989371;28;20117;-86
2022/09/18 02:52:17;;;;;;;8.40;3.22;;;;;;;;;;4946545;28;20166;-84
2022/09/18 02:54:56;;;;;;;6.35;3.17;;;;;;;;;;4940771;28;20047;-85
2022/09/18 02:57:30;;;;;;;6.18;3.08;;;;;;;;;;4989783;28;20416;-85
2022/09/18 02:59:56;;;;;;;5.97;3.03;;;;;;;;;;4989595;28;20058;-84
2022/09/18 03:02:21;;;;;;;5.43;3.08;;;;;;;;;;4989023;28;20070;-85
2022/09/18 03:04:48;;;;;;;6.97;3.17;;;;;;;;;;4989201;28;20058;-85
2022/09/18 03:07:15;;;;;;;7.60;3.15;;;;;;;;;;4989493;28;20485;-85
2022/09/18 03:09:43;;;;;;;8.02;3.08;;;;;;;;;;4956125;28;20126;-85
2022/09/18 03:12:10;;;;;;;5.22;2.28;;;;;;;;;;4988979;28;20090;-85
2022/09/18 03:14:36;;;;;;;4.20;2.25;;;;;;;;;;4973070;28;20110;-85
2022/09/18 03:17:02;;;;;;;5.20;2.55;;;;;;;;;;4989655;28;20389;-85
2022/09/18 03:19:28;;;;;;;4.68;2.53;;;;;;;;;;4956766;28;20042;-85
2022/09/18 03:21:54;;;;;;;5.43;2.40;;;;;;;;;;4985577;28;20043;-85
2022/09/18 03:24:19;;;;;;;5.25;2.33;;;;;;;;;;4969108;28;20054;-85
2022/09/18 03:26:46;;;;;;;8.85;2.47;;;;;;;;;;4969497;28;20054;-83
2022/09/18 03:29:12;;;;;;;5.00;2.00;;;;;;;;;;4969293;28;20494;-84
2022/09/18 03:31:37;;;;;;;3.33;1.67;;;;;;;;;;4980482;28;20401;-85
2022/09/18 03:34:03;;;;;;;8.20;2.28;;;;;;;;;;5001745;28;20050;-84
2022/09/18 03:36:29;;;;;;;4.20;1.80;;;;;;;;;;5001486;28;20038;-85
2022/09/18 03:38:54;;;;;;;5.20;2.40;;;;;;;;;;4971974;28;20035;-85
2022/09/18 03:41:21;;;;;;;4.20;1.95;;;;;;;;;;4988559;28;20116;-84
2022/09/18 03:43:48;;;;;;;3.63;2.05;;;;;;;;;;4972047;28;20178;-85
2022/09/18 03:46:21;;;;;;;5.68;2.03;;;;;;;;;;4972092;28;20023;-85
2022/09/18 03:48:48;;;;;;;3.45;1.60;;;;;;;;;;4987441;28;20100;-85
2022/09/18 03:51:14;;;;;;;3.38;1.70;;;;;;;;;;4972150;28;20027;-85
2022/09/18 03:53:39;;;;;;;4.05;1.65;;;;;;;;;;4987948;28;20122;-85
2022/09/18 03:56:05;;;;;;;5.18;1.60;;;;;;;;;;4987857;28;20045;-85
2022/09/18 03:58:32;;;;;;;3.75;1.60;;;;;;;;;;4972256;28;20031;-85
2022/09/18 04:00:59;;;;;;;4.85;2.10;;;;;;;;;;4988049;28;20041;-84
2022/09/18 04:03:24;;;;;;;3.42;1.33;;;;;;;;;;4988003;28;20065;-84
2022/09/18 04:05:51;;;;;;;3.95;1.60;;;;;;;;;;4987969;28;20374;-84
2022/09/18 04:08:16;;;;;;;4.20;1.95;;;;;;;;;;4987327;28;20035;-85
2022/09/18 04:10:42;;;;;;;3.92;1.58;;;;;;;;;;4987807;28;20053;-84
2022/09/18 04:13:07;;;;;;;5.00;1.77;;;;;;;;;;4988013;28;20061;-85
2022/09/18 04:15:33;;;;;;;3.50;1.35;;;;;;;;;;4988157;28;20389;-84
2022/09/18 04:17:58;;;;;;;4.47;1.67;;;;;;;;;;4972068;28;20031;-84
2022/09/18 04:20:24;;;;;;;2.83;1.02;;;;;;;;;;4987606;28;20038;-84
2022/09/18 04:22:49;;;;;;;3.05;1.30;;;;;;;;;;4984172;28;20541;-84
2022/09/18 04:25:16;;;;;;;3.08;1.20;;;;;;;;;;4968137;28;20024;-84
2022/09/18 04:27:41;;;;;;;3.13;1.30;;;;;;;;;;4968317;28;20031;-84
2022/09/18 04:30:08;;;;;;;3.78;1.48;;;;;;;;;;4970842;28;20062;-84
2022/09/18 04:32:33;;;;;;;3.80;1.42;;;;;;;;;;4955448;28;20038;-84
2022/09/18 04:34:59;;;;;;;3.17;1.17;;;;;;;;;;4971443;28;20035;-84
2022/09/18 04:37:24;;;;;;;2.75;1.05;;;;;;;;;;4971207;28;20117;-84
2022/09/18 04:39:50;;;;;;;3.42;1.27;;;;;;;;;;4987374;28;20030;-84
2022/09/18 04:42:15;;;;;;;3.40;1.23;;;;;;;;;;4988148;28;20050;-84
2022/09/18 04:44:42;;;;;;;2.72;0.90;;;;;;;;;;4971546;28;20485;-83
2022/09/18 04:47:08;;;;;;;3.03;1.23;;;;;;;;;;4971365;28;20030;-84
2022/09/18 04:49:35;;;;;;;2.78;1.15;;;;;;;;;;4974894;28;20033;-84
2022/09/18 04:52:00;;;;;;;3.45;0.98;;;;;;;;;;4984081;28;20065;-84
2022/09/18 04:54:26;;;;;;;4.03;1.30;;;;;;;;;;4975163;28;20116;-84
2022/09/18 04:56:51;;;;;;;3.20;0.82;;;;;;;;;;4975203;28;20085;-84
2022/09/18 04:59:18;;;;;;;2.83;1.10;;;;;;;;;;4991475;28;20035;-83
2022/09/18 05:01:43;;;;;;;4.35;1.27;;;;;;;;;;4991012;28;20061;-83
2022/09/18 05:04:09;;;;;;;1.88;0.63;;;;;;;;;;4991054;28;20491;-84
2022/09/18 05:06:35;;;;;;;2.03;0.93;;;;;;;;;;4975177;28;20078;-83
2022/09/18 05:09:00;;;;;;;3.13;1.40;;;;;;;;;;4990855;28;20089;-84
2022/09/18 05:11:26;;;;;;;3.80;1.10;;;;;;;;;;4975002;28;20393;-84
2022/09/18 05:13:55;;;;;;;3.53;0.82;;;;;;;;;;4991197;28;20093;-85
2022/09/18 05:16:23;;;;;;;2.42;0.85;;;;;;;;;;4990614;28;20030;-84
2022/09/18 05:18:51;;;;;;;2.83;1.00;;;;;;;;;;4974679;28;20061;-85
2022/09/18 05:21:17;;;;;;;1.58;0.73;;;;;;;;;;4974879;28;20121;-84
2022/09/18 05:23:44;;;;;;;2.97;0.80;;;;;;;;;;4971154;28;20106;-83
2022/09/18 05:26:10;;;;;;;2.08;0.60;;;;;;;;;;4939118;29;20498;-83
2022/09/18 05:28:37;;;;;;;2.88;0.80;;;;;;;;;;4971889;28;20034;-85
2022/09/18 05:31:05;;;;;;;2.20;0.90;;;;;;;;;;4968466;28;20109;-85
2022/09/18 05:33:30;;;;;;;2.13;0.70;;;;;;;;;;4977316;28;20041;-83
2022/09/18 05:35:56;;;;;;;2.92;0.88;;;;;;;;;;4978275;28;20042;-86
2022/09/18 05:38:22;;;;;;;14.77;1.35;;;;;;;;;;4977235;28;20397;-83
2022/09/18 05:40:48;;;;;;;11.45;1.55;;;;;;;;;;4972167;28;20031;-82
2022/09/18 05:43:14;;;;;;;7.47;1.27;;;;;;;;;;4989112;28;20041;-81
2022/09/18 05:45:39;;;;;;;3.58;0.80;;;;;;;;;;4989761;28;20055;-82
2022/09/18 05:48:05;;;;;;;10.32;1.45;;;;;;;;;;4973933;28;20069;-81
2022/09/18 05:50:31;;;;;;;8.55;1.10;;;;;;;;;;4958420;28;20084;-81
2022/09/18 05:53:01;;;;;;;5.90;1.08;;;;;;;;;;4974337;28;20401;-82
2022/09/18 05:55:30;;;;;;;4.88;1.00;;;;;;;;;;4974332;28;20085;-81
2022/09/18 05:57:56;;;;;;;7.28;1.00;;;;;;;;;;4957797;28;20026;-81
2022/09/18 06:00:23;;;;;;;3.78;1.00;;;;;;;;;;4973621;28;20031;-81
2022/09/18 06:02:55;;;;;;;7.82;0.70;;;;;;;;;;4989487;28;20043;-81
2022/09/18 06:05:21;;;;;;;7.18;1.23;;;;;;;;;;4990031;28;20035;-81
2022/09/18 06:07:48;;;;;;;5.50;1.00;;;;;;;;;;4990341;28;20081;-81
2022/09/18 06:10:13;;;;;;;6.90;1.35;;;;;;;;;;4990209;28;20046;-81
2022/09/18 06:12:39;;;;;;;7.47;1.48;;;;;;;;;;4990284;28;20023;-81
2022/09/18 06:15:05;;;;;;;6.53;1.50;;;;;;;;;;4989932;28;20109;-82
2022/09/18 06:17:31;;;;;;;5.15;0.95;;;;;;;;;;4957418;28;20031;-81
2022/09/18 06:19:56;;;;;;;3.90;0.93;;;;;;;;;;4973864;28;20050;-81
2022/09/18 06:22:23;;;;;;;2.17;0.65;;;;;;;;;;4957599;28;20101;-81
2022/09/18 06:24:49;;;;;;;3.13;0.98;;;;;;;;;;4973392;28;20034;-82
2022/09/18 06:27:14;;;;;;;5.65;1.45;;;;;;;;;;4957336;28;20102;-82
2022/09/18 06:29:40;;;;;;;6.65;1.17;;;;;;;;;;4974089;28;20481;-84
2022/09/18 06:32:05;;;;;;;2.85;0.68;;;;;;;;;;4975419;28;20584;-81
2022/09/18 06:34:31;;;;;;;6.15;1.25;;;;;;;;;;4975083;28;20130;-84
2022/09/18 06:36:56;;;;;;;3.90;0.88;;;;;;;;;;4972188;28;20060;-82
2022/09/18 06:39:23;;;;;;;7.13;1.60;;;;;;;;;;4955407;29;20066;-85
2022/09/18 06:41:48;;;;;;;3.55;1.17;;;;;;;;;;4955289;28;20043;-84
2022/09/18 06:44:14;;;;;;;7.38;1.05;;;;;;;;;;4973415;28;20031;-85
2022/09/18 06:46:39;;;;;;;8.05;1.70;;;;;;;;;;4962034;28;20031;-84
2022/09/18 06:49:05;;;;;;;3.53;0.60;;;;;;;;;;4971393;28;20176;-82
2022/09/18 06:51:31;;;;;;;7.32;1.10;;;;;;;;;;4980204;28;20104;-83
2022/09/18 06:53:57;;;;;;;16.83;2.20;;;;;;;;;;4990698;28;20077;-84
2022/09/18 06:56:23;;;;;;;9.73;1.67;;;;;;;;;;4990939;28;20038;-82
2022/09/18 06:58:51;;;;;;;15.05;2.08;;;;;;;;;;4988398;28;20043;-83
2022/09/18 07:01:16;;;;;;;10.30;2.30;;;;;;;;;;4984558;28;20089;-83
2022/09/18 07:03:42;;;;;;;12.32;1.73;;;;;;;;;;4968051;28;20038;-83
2022/09/18 07:06:08;;;;;;;11.95;1.52;;;;;;;;;;4968132;28;20393;-82
2022/09/18 07:08:34;;;;;;;10.23;2.22;;;;;;;;;;4967247;28;20043;-83
2022/09/18 07:11:00;;;;;;;5.60;1.02;;;;;;;;;;4967175;28;20039;-83
2022/09/18 07:13:29;;;;;;;7.70;1.30;;;;;;;;;;4968514;28;20038;-83
2022/09/18 07:15:54;;;;;;;7.15;1.50;;;;;;;;;;4969196;28;20031;-83
2022/09/18 07:18:20;;;;;;;8.48;1.48;;;;;;;;;;4969575;28;20082;-82
2022/09/18 07:20:45;;;;;;;5.78;0.90;;;;;;;;;;4969482;28;20029;-83
2022/09/18 07:23:11;;;;;;;9.68;1.65;;;;;;;;;;4968554;28;20489;-83
2022/09/18 07:25:36;;;;;;;7.28;1.88;;;;;;;;;;4968470;28;20126;-83
2022/09/18 07:28:09;;;;;;;12.60;1.98;;;;;;;;;;4968222;28;20677;-83
2022/09/18 07:30:38;;;;;;;9.90;2.38;;;;;;;;;;4971572;28;20050;-83
2022/09/18 07:33:04;;;;;;;8.52;1.75;;;;;;;;;;4988158;28;20042;-82
2022/09/18 07:35:29;;;;;;;7.40;2.22;;;;;;;;;;4988603;28;20031;-83
2022/09/18 07:38:02;;;;;;;7.90;1.35;;;;;;;;;;4987254;28;20109;-83
2022/09/18 07:40:28;;;;;;;10.30;1.95;;;;;;;;;;4971862;28;20034;-83
2022/09/18 07:43:07;;;;;;;8.43;1.20;;;;;;;;;;4972221;28;20042;-82
2022/09/18 07:45:32;;;;;;;19.70;2.92;;;;;;;;;;4988232;28;20030;-84
2022/09/18 07:48:04;;;;;;;17.35;2.33;;;;;;;;;;4972233;28;20121;-84
2022/09/18 07:50:31;;;;;;;16.20;2.60;;;;;;;;;;4972190;28;20580;-84
2022/09/18 07:52:57;;;;;;;18.98;4.40;;;;;;;;;;4971709;28;20042;-83
2022/09/18 07:55:24;;;;;;;16.00;2.90;;;;;;;;;;4971760;28;20374;-84
2022/09/18 07:57:54;;;;;;;8.77;2.38;;;;;;;;;;4988116;28;20042;-84
2022/09/18 08:00:19;;;;;;;13.05;2.55;;;;;;;;;;4971689;28;20031;-84
2022/09/18 08:02:45;;;;;;;20.15;3.40;;;;;;;;;;4968205;28;20043;-83
2022/09/18 08:05:10;;;;;;;19.00;3.25;;;;;;;;;;4952629;29;20031;-83
2022/09/18 08:07:36;;;;;;;14.52;2.45;;;;;;;;;;4952525;28;20375;-84
2022/09/18 08:10:03;;;;;;;18.67;3.00;;;;;;;;;;4936039;28;20027;-83
2022/09/18 08:12:30;;;;;;;18.20;2.53;;;;;;;;;;4950359;28;20031;-85
2022/09/18 08:14:57;;;;;;;15.57;2.95;;;;;;;;;;4971416;28;20497;-84
2022/09/18 08:17:23;;;;;;;8.93;1.88;;;;;;;;;;4971337;28;20027;-85
2022/09/18 08:19:49;;;;;;;13.95;3.15;;;;;;;;;;4971255;28;20077;-83
2022/09/18 08:22:15;;;;;;;10.30;2.00;;;;;;;;;;4987395;28;20042;-84
2022/09/18 08:24:40;;;;;;;9.00;1.85;;;;;;;;;;4970964;28;20030;-84
2022/09/18 08:27:06;;;;;;;14.43;2.35;;;;;;;;;;4971121;28;20085;-85
2022/09/18 08:29:31;;;;;;;8.95;2.63;;;;;;;;;;4988021;28;20027;-84
2022/09/18 08:31:57;;;;;;;14.57;1.75;;;;;;;;;;4988525;28;20038;-84
2022/09/18 08:34:22;;;;;;;13.25;1.98;;;;;;;;;;5007326;28;20473;-85
2022/09/18 08:36:50;;;;;;;9.13;1.92;;;;;;;;;;5004742;28;20045;-85
2022/09/18 08:39:16;;;;;;;12.10;2.33;;;;;;;;;;4974543;28;20038;-83
2022/09/18 08:42:10;;;;;;;7.70;2.50;;;;;;;;;;4987555;28;20039;-84
2022/09/18 08:44:50;;;;;;;8.30;2.10;;;;;;;;;;4968632;28;20026;-85
2022/09/18 08:47:21;;;;;;;8.00;1.83;;;;;;;;;;4971406;28;20026;-89
2022/09/18 08:50:02;;;;;;;10.57;2.70;;;;;;;;;;4988311;28;20031;-84
2022/09/18 08:52:28;;;;;;;10.15;2.42;;;;;;;;;;4983755;28;20449;-85
2022/09/18 08:55:01;;;;;;;16.17;2.45;;;;;;;;;;4971427;28;20031;-84
2022/09/18 08:57:46;;;;;;;12.38;1.92;;;;;;;;;;4987625;28;20062;-88
2022/09/18 09:00:18;;;;;;;11.60;1.58;;;;;;;;;;4987433;28;20030;-84
2022/09/18 09:02:48;;;;;;;7.15;1.38;;;;;;;;;;4987576;28;20042;-84
2022/09/18 09:05:44;;;;;;;12.68;1.92;;;;;;;;;;4970866;28;20078;-86
2022/09/18 09:09:05;;;;;;;10.95;1.95;;;;;;;;;;4969175;28;20614;-84
2022/09/18 09:11:44;;;;;;;13.43;7.07;;;;;;;;;;4889145;28;20252;-85
2022/09/18 09:14:09;;;;;;;16.48;6.22;;;;;;;;;;5003198;28;20035;-84
2022/09/18 09:16:44;;;;;;;15.18;7.03;;;;;;;;;;5003291;28;20080;-83
2022/09/18 09:19:30;;;;;;;20.45;8.63;;;;;;;;;;5003503;28;20034;-84
2022/09/18 09:22:01;;;;;;;16.35;8.98;;;;;;;;;;5003279;28;20042;-84
2022/09/18 09:24:46;;;;;;;21.00;8.88;;;;;;;;;;5003930;28;20030;-89
2022/09/18 09:27:29;;;;;;;17.38;8.55;;;;;;;;;;5003905;28;20027;-87
2022/09/18 09:30:00;;;;;;;17.70;7.95;;;;;;;;;;4969289;28;20106;-89
2022/09/18 09:32:38;;;;;;;15.88;8.20;;;;;;;;;;4969305;28;20418;-88
2022/09/18 09:35:22;;;;;;;16.40;7.43;;;;;;;;;;4954929;28;20130;-89
2022/09/18 09:37:47;;;;;;;15.27;7.45;;;;;;;;;;4972897;28;20034;-90
2022/09/18 09:40:19;;;;;;;14.10;7.05;;;;;;;;;;4955730;28;20027;-87
2022/09/18 09:42:57;;;;;;;15.77;6.47;;;;;;;;;;4955215;28;20027;-89
2022/09/18 09:45:28;;;;;;;16.42;7.15;;;;;;;;;;4956468;28;20385;-85
2022/09/18 09:48:02;;;;;;;13.52;5.93;;;;;;;;;;4971730;28;20035;-85
2022/09/18 09:50:36;;;;;;;13.05;5.18;;;;;;;;;;4971388;28;20043;-86
2022/09/18 09:53:06;;;;;;;14.23;5.68;;;;;;;;;;5007178;28;20035;-87
2022/09/18 09:55:56;;;;;;;12.73;5.60;;;;;;;;;;4974210;28;20141;-87
2022/09/18 09:58:55;;;;;;;14.30;5.93;;;;;;;;;;4972788;28;20027;-85
2022/09/18 10:01:53;;;;;;;13.60;4.95;;;;;;;;;;5001522;28;20069;-88
2022/09/18 10:04:46;;;;;;;13.75;5.45;;;;;;;;;;5006624;28;20039;-88
2022/09/18 10:07:53;;;;;;;11.60;4.57;;;;;;;;;;4981308;28;20065;-90
2022/09/18 10:10:58;;;;;;;15.13;4.50;;;;;;;;;;5007997;28;20039;-89
2022/09/18 10:13:54;;;;;;;9.45;3.80;;;;;;;;;;4979891;28;20070;-90
2022/09/18 10:16:42;;;;;;;8.95;3.22;;;;;;;;;;4993653;28;20031;-89
2022/09/18 10:19:39;;;;;;;8.27;3.80;;;;;;;;;;4982073;28;20042;-89
2022/09/18 10:22:26;;;;;;;10.20;3.72;;;;;;;;;;4981259;28;20031;-89
2022/09/18 10:25:54;;;;;;;12.57;4.68;;;;;;;;;;4980515;28;20184;-89
2022/09/18 10:28:40;;;;;;;9.20;3.30;;;;;;;;;;4941968;28;20137;-89
2022/09/18 10:31:56;;;;;;;7.70;3.03;;;;;;;;;;4941125;29;20062;-89
2022/09/18 10:34:48;;;;;;;7.50;3.03;;;;;;;;;;4980377;28;20432;-89
2022/09/18 10:37:39;;;;;;;8.55;2.95;;;;;;;;;;4981673;28;20042;-90
2022/09/18 10:40:28;;;;;;;8.75;2.85;;;;;;;;;;4993285;28;20042;-89
2022/09/18 10:43:16;;;;;;;9.10;2.67;;;;;;;;;;5007377;28;20031;-89
2022/09/18 10:46:01;;;;;;;8.48;2.47;;;;;;;;;;4980865;28;20038;-88
2022/09/18 10:48:47;;;;;;;10.65;2.78;;;;;;;;;;4981187;28;20410;-89
2022/09/18 10:51:33;;;;;;;7.45;3.22;;;;;;;;;;4980691;28;20524;-89
2022/09/18 10:54:21;;;;;;;5.55;2.97;;;;;;;;;;4966178;28;20497;-88
2022/09/18 10:57:27;;;;;;;7.40;2.42;;;;;;;;;;4986713;28;20041;-88
2022/09/18 11:00:18;;;;;;;5.18;2.50;;;;;;;;;;4999679;28;20563;-89
2022/09/18 11:03:19;;;;;;;7.45;2.58;;;;;;;;;;5025860;28;20088;-88
2022/09/18 11:06:09;;;;;;;6.07;2.60;;;;;;;;;;5026255;28;20045;-88
2022/09/18 11:08:58;;;;;;;6.13;2.20;;;;;;;;;;5011981;28;20120;-87
2022/09/18 11:11:45;;;;;;;7.43;2.33;;;;;;;;;;5012682;28;20137;-88
2022/09/18 11:14:37;;;;;;;5.40;2.05;;;;;;;;;;5013235;28;20562;-88
2022/09/18 11:17:25;;;;;;;4.43;2.15;;;;;;;;;;5011860;28;20038;-88
2022/09/18 11:20:23;;;;;;;6.03;1.73;;;;;;;;;;5011979;28;20054;-87
2022/09/18 11:23:25;;;;;;;3.83;2.08;;;;;;;;;;5011657;28;20077;-88
2022/09/18 11:26:15;;;;;;;6.40;2.10;;;;;;;;;;5011491;28;20045;-88
2022/09/18 11:29:18;;;;;;;5.68;2.00;;;;;;;;;;5025435;28;20061;-88
2022/09/18 11:32:18;;;;;;;3.58;1.50;;;;;;;;;;5012535;28;20093;-88
2022/09/18 11:35:04;;;;;;;5.38;1.98;;;;;;;;;;5025727;28;20041;-88
2022/09/18 11:37:54;;;;;;;3.10;1.50;;;;;;;;;;5011925;28;20479;-87
2022/09/18 11:40:45;;;;;;;4.22;1.45;;;;;;;;;;5011775;28;20042;-87
2022/09/18 11:43:34;;;;;;;4.85;1.65;;;;;;;;;;5012558;28;20459;-87
2022/09/18 11:46:59;;;;;;;3.80;1.50;;;;;;;;;;5012285;28;20095;-87
2022/09/18 11:49:48;;;;;;;3.60;1.33;;;;;;;;;;5002713;28;20073;-87
2022/09/18 11:52:55;;;;;;;3.10;1.17;;;;;;;;;;5011865;28;20038;-87
2022/09/18 11:55:48;;;;;;;6.32;1.60;;;;;;;;;;4985656;28;20030;-87
2022/09/18 11:58:40;;;;;;;4.72;1.42;;;;;;;;;;5011280;28;20038;-87
2022/09/18 12:01:44;;;;;;;3.55;1.00;;;;;;;;;;5011358;28;20033;-86
2022/09/18 12:04:35;;;;;;;3.60;1.13;;;;;;;;;;4996999;28;20045;-88
2022/09/18 12:07:35;;;;;;;3.13;1.10;;;;;;;;;;5024871;28;20496;-87
2022/09/18 12:10:47;;;;;;;3.28;1.35;;;;;;;;;;5011471;28;20088;-86
2022/09/18 12:13:45;;;;;;;2.80;0.80;;;;;;;;;;5022879;28;20038;-87
2022/09/18 12:16:40;;;;;;;4.18;0.98;;;;;;;;;;5009519;28;20076;-86
2022/09/18 12:19:34;;;;;;;2.15;1.08;;;;;;;;;;5024165;28;20045;-87
2022/09/18 12:22:21;;;;;;;2.75;1.00;;;;;;;;;;5025002;28;20050;-86
2022/09/18 12:25:14;;;;;;;2.08;0.82;;;;;;;;;;5024605;28;20029;-87
2022/09/18 12:28:28;;;;;;;2.92;0.88;;;;;;;;;;4997534;28;20415;-86
2022/09/18 12:31:33;;;;;;;2.60;0.90;;;;;;;;;;5007915;28;20515;-86
2022/09/18 12:34:40;;;;;;;3.88;1.05;;;;;;;;;;5024422;28;20074;-86
2022/09/18 12:37:47;;;;;;;2.10;0.70;;;;;;;;;;5024258;28;20053;-86
2022/09/18 12:40:42;;;;;;;2.08;0.52;;;;;;;;;;5024683;28;20391;-86
2022/09/18 12:44:05;;;;;;;3.88;1.05;;;;;;;;;;5022983;28;20089;-86
2022/09/18 12:47:12;;;;;;;3.47;0.95;;;;;;;;;;5023475;28;20496;-87
2022/09/18 12:50:22;;;;;;;1.52;0.73;;;;;;;;;;5010825;28;20050;-86
2022/09/18 12:53:40;;;;;;;1.70;0.60;;;;;;;;;;5024706;28;20488;-88
2022/09/18 12:56:45;;;;;;;3.55;0.73;;;;;;;;;;5011657;28;20037;-95
2022/09/18 12:59:53;;;;;;;1.95;0.77;;;;;;;;;;4998676;28;20504;-96
2022/09/18 13:02:42;;;;;;;1.42;0.80;;;;;;;;;;4998362;28;20038;-95
2022/09/18 13:05:32;;;;;;;3.20;0.88;;;;;;;;;;5011892;28;20054;-96
2022/09/18 13:08:27;;;;;;;3.50;0.85;;;;;;;;;;5011065;28;20018;-93
2022/09/18 13:11:28;;;;;;;2.90;0.80;;;;;;;;;;5016024;28;20181;-94
2022/09/18 13:14:26;;;;;;;2.72;1.05;;;;;;;;;;5002963;28;20512;-93
2022/09/18 13:17:14;;;;;;;1.40;0.70;;;;;;;;;;5015806;28;20096;-93
2022/09/18 13:20:13;;;;;;;2.42;0.85;;;;;;;;;;5001254;28;20089;-91
2022/09/18 13:22:59;;;;;;;1.52;0.90;;;;;;;;;;5015378;28;20428;-91
2022/09/18 13:25:46;;;;;;;1.70;0.75;;;;;;;;;;5015294;28;20482;-92
2022/09/18 13:28:32;;;;;;;3.30;0.80;;;;;;;;;;5016017;28;20480;-92
2022/09/18 13:31:23;;;;;;;1.85;0.55;;;;;;;;;;5000094;28;20058;-92
2022/09/18 13:34:15;;;;;;;1.85;0.63;;;;;;;;;;5014819;28;20082;-90
2022/09/18 13:37:05;;;;;;;1.80;0.68;;;;;;;;;;5028149;28;20134;-91
2022/09/18 13:39:53;;;;;;;3.15;0.90;;;;;;;;;;5026783;28;20045;-91
2022/09/18 13:42:40;;;;;;;1.55;0.60;;;;;;;;;;5014434;28;20042;-91
2022/09/18 13:45:26;;;;;;;1.58;0.70;;;;;;;;;;5015003;28;20048;-92
2022/09/18 13:48:21;;;;;;;1.63;0.73;;;;;;;;;;5014605;28;20030;-93
2022/09/18 13:51:20;;;;;;;1.52;0.50;;;;;;;;;;5028647;28;20041;-95
2022/09/18 13:54:09;;;;;;;1.77;0.73;;;;;;;;;;5014615;28;20505;-95
2022/09/18 13:57:09;;;;;;;1.75;0.60;;;;;;;;;;5014579;28;20065;-94
2022/09/18 14:00:05;;;;;;;2.17;0.70;;;;;;;;;;5013982;28;20026;-93
2022/09/18 14:03:06;;;;;;;1.60;0.55;;;;;;;;;;5014638;28;20042;-93
2022/09/18 14:05:52;;;;;;;2.00;0.52;;;;;;;;;;5028219;28;20030;-93
2022/09/18 14:08:38;;;;;;;1.55;0.50;;;;;;;;;;4999543;28;20033;-92
2022/09/18 14:11:24;;;;;;;2.60;0.60;;;;;;;;;;5013063;28;20440;-93
2022/09/18 14:14:10;;;;;;;2.28;0.80;;;;;;;;;;5000416;28;20069;-92
2022/09/18 14:17:09;;;;;;;1.88;0.60;;;;;;;;;;5000560;28;20117;-91
2022/09/18 14:20:03;;;;;;;1.45;0.60;;;;;;;;;;5000030;28;20103;-91
2022/09/18 14:22:49;;;;;;;1.90;0.45;;;;;;;;;;5015787;28;20038;-91
2022/09/18 14:25:44;;;;;;;1.48;0.50;;;;;;;;;;5012882;28;20069;-91
2022/09/18 14:28:29;;;;;;;1.35;0.52;;;;;;;;;;5000314;28;20034;-91
2022/09/18 14:31:29;;;;;;;1.90;0.70;;;;;;;;;;5000008;28;20073;-90
2022/09/18 14:34:23;;;;;;;1.80;0.68;;;;;;;;;;4993420;28;20038;-89
2022/09/18 14:37:28;;;;;;;1.92;0.50;;;;;;;;;;5027383;28;20037;-90
2022/09/18 14:40:19;;;;;;;1.52;0.52;;;;;;;;;;5013377;28;20420;-90
2022/09/18 14:43:14;;;;;;;1.05;0.43;;;;;;;;;;5013316;28;20042;-90
2022/09/18 14:46:00;;;;;;;1.13;0.65;;;;;;;;;;4998997;28;20555;-89
2022/09/18 14:48:45;;;;;;;2.33;0.75;;;;;;;;;;4999575;28;20488;-90
2022/09/18 14:51:31;;;;;;;1.67;0.60;;;;;;;;;;4999683;28;20061;-90
2022/09/18 14:54:24;;;;;;;0.82;0.45;;;;;;;;;;5013067;28;20033;-89
2022/09/18 14:57:10;;;;;;;;;;;;;;;;;;5013092;28;20065;-90
2022/09/18 14:59:56;;;;;;;1.45;0.50;;;;;;;;;;4999900;28;19905;-89
2022/09/18 15:02:42;;;;;;;2.30;0.75;;;;;;;;;;5012580;28;20038;-89
2022/09/18 15:05:28;;;;;;;1.52;0.65;;;;;;;;;;4999492;28;20388;-89
2022/09/18 15:08:15;;;;;;;1.27;0.40;;;;;;;;;;5013236;28;20038;-89
2022/09/18 15:11:03;;;;;;;1.40;0.55;;;;;;;;;;5013434;28;20030;-89
2022/09/18 15:13:50;;;;;;;0.82;0.50;;;;;;;;;;5012633;28;20080;-89
2022/09/18 15:16:36;;;;;;;1.92;0.65;;;;;;;;;;5013457;28;20033;-89
2022/09/18 15:19:22;;;;;;;1.27;0.50;;;;;;;;;;4999011;28;20060;-90
2022/09/18 15:22:19;;;;;;;1.05;0.45;;;;;;;;;;5012062;28;20030;-90
2022/09/18 15:25:11;;;;;;;1.55;0.63;;;;;;;;;;4997627;28;20041;-90
2022/09/18 15:27:59;;;;;;;1.08;0.50;;;;;;;;;;5003114;28;20448;-90
2022/09/18 15:30:50;;;;;;;2.70;0.57;;;;;;;;;;4995238;28;20046;-91
2022/09/18 15:33:58;;;;;;;28.92;3.83;;;;;;;;;;4992941;28;20042;-87
2022/09/18 15:36:57;;;;;;;13.68;2.03;;;;;;;;;;4992301;28;20226;-94
2022/09/18 15:39:45;;;;;;;6.55;1.35;;;;;;;;;;4993392;28;20034;-95
2022/09/18 15:42:35;;;;;;;6.22;1.42;;;;;;;;;;4994362;28;20045;-95
2022/09/18 15:45:40;;;;;;;11.75;5.05;;;;;;;;;;4993596;28;20045;-96
2022/09/18 15:48:42;;;;;;;9.98;4.30;;;;;;;;;;5005187;28;20039;-94